Terminal Aerodrome Forecast
Issued by NWS

Home | Current Version | Previous Version | Text Only | Print | Product List | Glossary On
Versions: 1 2 3 4 5 6 7 8 9 10 11 12 13 14 15 16 17
000
FTUS45 KVEF 272300
TAFEED
TAF
KEED 272320Z 2800/2824 20009KT P6SM SCT150
     FM280500 24009KT P6SM SCT150
     FM281200 VRB06KT P6SM SCT150
     FM281800 19011KT P6SM VCTS SCT120CB=

USA.gov is the U.S. government's official web portal to all federal, state and local government web resources and services.